Blue Grass Airport Lexington US
ICAO: KLEX
IATA: LEX
Category: Large
Scheduled Services: Yes

Elevation: 979 ft
TransAlt. 18000 ft.

Airport Communications:
LEXINGTON APP/DEP:120.15
ATIS:126.3
CLNC DEL:132.35
GND:121.9
LEXINGTON TWR:119.1
UNICOM:122.95

KLEX Zoom In..

Runways:

(A) RW 04 length 7004 ft width 150 ft
ILS 110.10 / hdg 46

(B) RW 09 length 4000 ft width 75 ft
---- / hdg 87

(C) RW 22 length 7004 ft width 150 ft
ILS 111.75 / hdg 226

(D) RW 27 length 4000 ft width 75 ft
---- / hdg 267

Location; KLEX
Day. 24 / Time. 12.54 Zulu
* Altimeter: 30.20
* Temperature: 19° c. 66.2°f.
* Wind from: 060° Speed 09 kn.
Dewpoint: 14° c.
Visibility: 10 Statute Miles.
Clouds: Clear (automated report).

KLEX 241254Z 06009KT 10SM CLR 19/14 A3020 RMK AO2 SLP221 T01940144 $


Wind From 060°
Speed 09 kn.

 
 
jpsmedia.com for Web Design SOUNDCLOUD worldairports.se 2018   terms of use